createdAt,value
2014-08-08T06:10:33.142Z,22.6
2014-08-08T06:10:51.347Z,22.6
2014-08-08T06:11:09.534Z,22.6
2014-08-08T06:11:27.722Z,22.7
2014-08-08T06:11:45.909Z,22.7
2014-08-08T06:12:04.114Z,22.7
2014-08-08T06:12:22.302Z,22.7
2014-08-08T06:12:40.489Z,22.7
2014-08-08T06:12:58.694Z,22.7
2014-08-08T06:13:16.882Z,22.7
2014-08-08T06:13:35.069Z,22.7
2014-08-08T06:13:53.275Z,22.7
2014-08-08T06:14:11.462Z,22.7
2014-08-08T06:14:29.650Z,22.7
2014-08-08T06:14:47.853Z,22.7
2014-08-08T06:15:06.042Z,22.8
2014-08-08T06:15:24.230Z,22.8
2014-08-08T06:15:42.433Z,22.8
2014-08-08T06:16:00.622Z,22.8
2014-08-08T06:16:18.810Z,22.9
2014-08-08T06:16:37.013Z,22.9
2014-08-08T06:16:55.202Z,23
2014-08-08T06:17:13.390Z,23
2014-08-08T06:17:31.577Z,23
2014-08-08T06:17:49.781Z,23
2014-08-08T06:18:07.970Z,23
2014-08-08T06:18:26.158Z,23
2014-08-08T06:18:44.345Z,23
2014-08-08T06:19:02.535Z,23.1
2014-08-08T06:19:20.738Z,23.1
2014-08-08T06:19:38.925Z,23.2
2014-08-08T06:19:57.114Z,23.2
2014-08-08T06:20:15.317Z,23.2
2014-08-08T06:20:33.504Z,23.2
2014-08-08T06:20:51.692Z,23.2
2014-08-08T06:21:09.897Z,23.2
2014-08-08T06:21:28.084Z,23.2
2014-08-08T06:21:46.288Z,23.2
2014-08-08T06:22:04.477Z,23.2
2014-08-08T06:22:22.680Z,23.2
2014-08-08T06:22:40.868Z,23.2
2014-08-08T06:22:59.073Z,23.2
2014-08-08T06:23:17.260Z,23.3
2014-08-08T06:23:35.448Z,23.3
2014-08-08T06:23:53.653Z,23.3
2014-08-08T06:24:11.840Z,23.3
2014-08-08T06:24:30.044Z,23.3
2014-08-08T06:24:48.231Z,23.3
2014-08-08T06:25:06.420Z,23.3
2014-08-08T06:25:24.623Z,23.3
2014-08-08T06:25:42.810Z,23.3
2014-08-08T06:26:01.015Z,23.3
2014-08-08T06:26:19.203Z,23.3
2014-08-08T06:26:37.406Z,23.3
2014-08-08T06:26:55.596Z,23.3
2014-08-08T06:27:13.800Z,23.3
2014-08-08T06:27:31.987Z,23.3
2014-08-08T06:27:50.175Z,23.3
2014-08-08T06:28:08.380Z,23.3
2014-08-08T06:28:26.583Z,23.3
2014-08-08T06:28:44.770Z,23.3
2014-08-08T06:29:02.991Z,23.3
2014-08-08T06:29:21.194Z,23.3
2014-08-08T06:29:39.382Z,23.3
2014-08-08T06:29:57.570Z,23.3
2014-08-08T06:30:15.773Z,23.4
2014-08-08T06:30:33.961Z,23.3
2014-08-08T06:30:52.164Z,23.4
2014-08-08T06:31:10.354Z,23.4
2014-08-08T06:31:28.558Z,23.4
2014-08-08T06:31:46.745Z,23.4
2014-08-08T06:32:04.949Z,23.4
2014-08-08T06:32:23.137Z,23.4
2014-08-08T06:32:41.340Z,23.4
2014-08-08T06:32:59.529Z,23.4
2014-08-08T06:33:17.732Z,23.4
2014-08-08T06:33:35.920Z,23.4
2014-08-08T06:33:54.109Z,23.4
2014-08-08T06:34:12.313Z,23.4
2014-08-08T06:34:30.500Z,23.4
2014-08-08T06:34:48.703Z,23.4
2014-08-08T06:35:06.893Z,23.4
2014-08-08T06:35:25.096Z,23.4
2014-08-08T06:35:43.283Z,23.4
2014-08-08T06:36:01.488Z,23.4
2014-08-08T06:36:19.676Z,23.4
2014-08-08T06:36:37.879Z,23.4
2014-08-08T06:36:56.069Z,23.4
2014-08-08T06:37:14.272Z,23.4
2014-08-08T06:37:32.459Z,23.4
2014-08-08T06:37:50.647Z,23.4
2014-08-08T06:38:08.852Z,23.4
2014-08-08T06:38:27.039Z,23.4
2014-08-08T06:38:45.242Z,23.4
2014-08-08T06:39:03.432Z,23.4
2014-08-08T06:39:21.635Z,23.4
2014-08-08T06:39:39.823Z,23.4
2014-08-08T06:39:58.028Z,23.4
2014-08-08T06:40:16.215Z,23.4
2014-08-08T06:40:34.403Z,23.4
2014-08-08T06:40:52.606Z,23.4
2014-08-08T06:41:10.794Z,23.4
2014-08-08T06:41:28.997Z,23.4
2014-08-08T06:41:47.185Z,23.4
2014-08-08T06:42:05.391Z,23.4
2014-08-08T06:42:23.594Z,23.4
2014-08-08T06:42:41.782Z,23.4
2014-08-08T06:42:59.970Z,23.4
2014-08-08T06:43:18.173Z,23.4
2014-08-08T06:43:36.361Z,23.4
2014-08-08T06:43:54.564Z,23.4
2014-08-08T06:44:12.753Z,23.4
2014-08-08T06:44:30.957Z,23.4
2014-08-08T06:44:49.144Z,23.4
2014-08-08T06:45:07.349Z,23.4
2014-08-08T06:45:25.537Z,23.4
2014-08-08T06:45:43.740Z,23.4
2014-08-08T06:46:01.927Z,23.4
2014-08-08T06:46:20.133Z,23.4
2014-08-08T06:46:38.321Z,23.4
